Girard, Kansas
Current Conditions -  °F | °C
As of 3:55 AM on Friday 31 Oct 2014 (Local Time) from KPTS Reporting Station
Clear Clear  
Wind Chill: 51°   Ceiling: Unl
Heat Index: 51°   Visibility: 10mi
Dew Point: 44°   Wind: 7mph
Humidity: 76%   Direction: 350°N
Pressure: 30.22"   Gusts: 16mph
Location:  37.51°N, 94.84°W
Report Text: KPTS 310855Z AUTO 35006G14KT 10SM CLR 11/07 A3022 RMK AO2 T01050065
Loading
Personal Weather Stations






























Interactive Weather Map
Tropical Storm Tracking
New forecast layout! Learn more

10-Day Weather Forecast

Advertisements
Track Severe Weather on mobile